Time;durP1;ratioP1;P1;durP2;ratioP2;P2;SDS_P1;SDS_P2;PMS_P1;PMS_P2;Temp;Humidity;BMP_temperature;BMP_pressure;BME280_temperature;BME280_humidity;BME280_pressure;Samples;Min_cycle;Max_cycle;Signal;HPM_P1;HPM_P2
2021/04/08 00:01:57;;;;;;;3.22;0.60;;;;;;;;;;5003425;28;20496;-58
2021/04/08 00:04:23;;;;;;;5.22;0.80;;;;;;;;;;5002846;28;20053;-56
2021/04/08 00:06:49;;;;;;;3.83;0.75;;;;;;;;;;5015552;28;20042;-59
2021/04/08 00:09:15;;;;;;;8.27;0.70;;;;;;;;;;4984747;28;20082;-56
2021/04/08 00:11:42;;;;;;;4.47;0.70;;;;;;;;;;4981276;28;20054;-56
2021/04/08 00:14:08;;;;;;;7.18;0.85;;;;;;;;;;4988841;28;20457;-59
2021/04/08 00:16:33;;;;;;;2.70;0.80;;;;;;;;;;5002724;28;20046;-59
2021/04/08 00:18:59;;;;;;;6.50;0.75;;;;;;;;;;4992826;28;20046;-58
2021/04/08 00:21:29;;;;;;;3.67;0.95;;;;;;;;;;4984421;28;20062;-59
2021/04/08 00:23:55;;;;;;;3.47;0.80;;;;;;;;;;4979168;28;20090;-58
2021/04/08 00:26:21;;;;;;;4.78;1.25;;;;;;;;;;4982074;28;20042;-59
2021/04/08 00:28:47;;;;;;;2.85;0.80;;;;;;;;;;4966448;28;20054;-59
2021/04/08 00:31:14;;;;;;;11.52;0.70;;;;;;;;;;4983348;28;20034;-59
2021/04/08 00:33:40;;;;;;;1.58;0.70;;;;;;;;;;4982434;28;20147;-55
2021/04/08 00:36:06;;;;;;;2.22;0.77;;;;;;;;;;4978777;28;20046;-57
2021/04/08 00:38:32;;;;;;;8.95;0.98;;;;;;;;;;4982271;28;20162;-58
2021/04/08 00:40:58;;;;;;;9.18;1.40;;;;;;;;;;4980211;28;20046;-59
2021/04/08 00:43:24;;;;;;;2.42;0.70;;;;;;;;;;4983275;28;20091;-56
2021/04/08 00:45:51;;;;;;;6.70;1.10;;;;;;;;;;4996528;28;20460;-59
2021/04/08 00:48:17;;;;;;;3.17;0.80;;;;;;;;;;5004300;28;20560;-59
2021/04/08 00:50:43;;;;;;;4.90;1.10;;;;;;;;;;4992615;28;20035;-59
2021/04/08 00:53:12;;;;;;;2.22;0.65;;;;;;;;;;4985967;28;20049;-56
2021/04/08 00:55:39;;;;;;;4.45;0.95;;;;;;;;;;4981988;28;20108;-56
2021/04/08 00:58:08;;;;;;;4.38;0.70;;;;;;;;;;4987018;28;20050;-54
2021/04/08 01:00:33;;;;;;;;;;;;;;;;;;4981092;28;20104;-55
2021/04/08 01:03:01;;;;;;;4.40;0.70;;;;;;;;;;4983859;28;20084;-54
2021/04/08 01:05:28;;;;;;;4.60;0.80;;;;;;;;;;4994936;28;20046;-54
2021/04/08 01:07:54;;;;;;;9.85;0.88;;;;;;;;;;5020911;28;20047;-55
2021/04/08 01:10:21;;;;;;;4.45;0.80;;;;;;;;;;5019016;28;20046;-59
2021/04/08 01:12:48;;;;;;;6.32;0.88;;;;;;;;;;5022131;28;20045;-54
2021/04/08 01:15:14;;;;;;;3.88;1.05;;;;;;;;;;5023416;28;20114;-59
2021/04/08 01:17:42;;;;;;;3.90;0.70;;;;;;;;;;5020634;28;20053;-56
2021/04/08 01:20:15;;;;;;;1.52;0.55;;;;;;;;;;5025372;28;20123;-59
2021/04/08 01:22:51;;;;;;;2.40;0.63;;;;;;;;;;5006473;28;20049;-55
2021/04/08 01:25:27;;;;;;;3.53;0.80;;;;;;;;;;5006449;28;20049;-57
2021/04/08 01:28:01;;;;;;;4.22;0.80;;;;;;;;;;5000060;28;20046;-59
2021/04/08 01:30:45;;;;;;;9.25;1.00;;;;;;;;;;5021334;28;20045;-54
2021/04/08 01:33:17;;;;;;;3.95;0.60;;;;;;;;;;4995742;28;20049;-59
2021/04/08 01:35:45;;;;;;;4.20;0.70;;;;;;;;;;4982283;28;20313;-58
2021/04/08 01:38:13;;;;;;;0.70;0.40;;;;;;;;;;5014337;28;20038;-56
2021/04/08 01:40:40;;;;;;;2.30;0.63;;;;;;;;;;5023016;28;20041;-57
2021/04/08 01:43:07;;;;;;;7.60;1.02;;;;;;;;;;5006490;28;20054;-56
2021/04/08 01:45:33;;;;;;;6.28;0.68;;;;;;;;;;5013356;28;20053;-58
2021/04/08 01:48:01;;;;;;;2.03;0.70;;;;;;;;;;5007589;28;20046;-59
2021/04/08 01:50:28;;;;;;;2.15;0.55;;;;;;;;;;5018889;28;20473;-59
2021/04/08 01:52:55;;;;;;;2.97;0.68;;;;;;;;;;5032667;28;20049;-56
2021/04/08 01:55:22;;;;;;;1.45;0.50;;;;;;;;;;5002400;28;20084;-57
2021/04/08 01:57:48;;;;;;;4.20;0.50;;;;;;;;;;5000521;28;20528;-58
2021/04/08 02:00:18;;;;;;;5.47;0.60;;;;;;;;;;5003231;28;20062;-56
2021/04/08 02:02:46;;;;;;;7.88;0.40;;;;;;;;;;5024288;28;20051;-57
2021/04/08 02:05:14;;;;;;;2.40;0.50;;;;;;;;;;5001181;28;20057;-58
2021/04/08 02:07:41;;;;;;;1.43;0.53;;;;;;;;;;4996261;28;20489;-58
2021/04/08 02:10:07;;;;;;;1.20;0.45;;;;;;;;;;5003170;28;20070;-54
2021/04/08 02:12:37;;;;;;;2.70;0.60;;;;;;;;;;5001495;28;20042;-55
2021/04/08 02:15:04;;;;;;;4.00;0.85;;;;;;;;;;4987687;28;20049;-53
2021/04/08 02:17:30;;;;;;;5.13;0.60;;;;;;;;;;4987373;28;20056;-58
2021/04/08 02:19:57;;;;;;;2.28;0.55;;;;;;;;;;4999876;28;20476;-58
2021/04/08 02:22:26;;;;;;;1.85;0.35;;;;;;;;;;5005679;28;20120;-58
2021/04/08 02:24:54;;;;;;;5.22;0.47;;;;;;;;;;4986540;28;20027;-59
2021/04/08 02:27:20;;;;;;;3.15;1.00;;;;;;;;;;5004148;28;20507;-59
2021/04/08 02:29:46;;;;;;;2.28;0.60;;;;;;;;;;5011245;28;20547;-57
2021/04/08 02:32:13;;;;;;;1.40;0.57;;;;;;;;;;5004879;28;20119;-52
2021/04/08 02:34:39;;;;;;;5.70;0.63;;;;;;;;;;4992600;28;20488;-56
2021/04/08 02:37:05;;;;;;;5.53;0.57;;;;;;;;;;4999274;28;20090;-55
2021/04/08 02:39:31;;;;;;;5.35;0.60;;;;;;;;;;5002673;28;20052;-53
2021/04/08 02:42:00;;;;;;;1.48;0.47;;;;;;;;;;5006987;28;20058;-56
2021/04/08 02:44:26;;;;;;;5.88;1.00;;;;;;;;;;4997671;28;20038;-58
2021/04/08 02:46:52;;;;;;;1.80;0.43;;;;;;;;;;4987999;28;20074;-52
2021/04/08 02:49:18;;;;;;;2.33;0.57;;;;;;;;;;4987310;28;20046;-59
2021/04/08 02:51:48;;;;;;;1.90;0.57;;;;;;;;;;5005785;28;20053;-55
2021/04/08 02:54:17;;;;;;;1.92;0.50;;;;;;;;;;5002226;28;20092;-53
2021/04/08 02:56:46;;;;;;;4.13;0.68;;;;;;;;;;5001679;28;20057;-53
2021/04/08 02:59:12;;;;;;;;;;;;;;;;;;5003964;28;20034;-55
2021/04/08 03:01:43;;;;;;;2.10;0.57;;;;;;;;;;5015802;28;19983;-55
2021/04/08 03:04:10;;;;;;;3.70;0.60;;;;;;;;;;5005420;28;20038;-58
2021/04/08 03:06:36;;;;;;;2.10;0.60;;;;;;;;;;4982757;28;20112;-54
2021/04/08 03:09:03;;;;;;;3.78;1.02;;;;;;;;;;4985515;28;20041;-55
2021/04/08 03:11:30;;;;;;;2.10;0.50;;;;;;;;;;4995354;28;20037;-59
2021/04/08 03:13:58;;;;;;;12.57;1.08;;;;;;;;;;5004208;28;20042;-54
2021/04/08 03:16:25;;;;;;;1.30;0.50;;;;;;;;;;5000729;28;20029;-53
2021/04/08 03:18:53;;;;;;;3.58;0.60;;;;;;;;;;5005306;28;20050;-57
2021/04/08 03:21:23;;;;;;;2.45;0.60;;;;;;;;;;4999208;28;20090;-57
2021/04/08 03:23:49;;;;;;;4.30;0.60;;;;;;;;;;5038807;28;20048;-53
2021/04/08 03:26:16;;;;;;;6.65;0.93;;;;;;;;;;5031229;28;20276;-57
2021/04/08 03:28:42;;;;;;;5.53;1.05;;;;;;;;;;5006923;28;20045;-58
2021/04/08 03:31:09;;;;;;;10.30;1.00;;;;;;;;;;5020170;28;20045;-57
2021/04/08 03:33:35;;;;;;;3.30;0.50;;;;;;;;;;5017030;28;20065;-55
2021/04/08 03:36:03;;;;;;;1.30;0.38;;;;;;;;;;5003181;28;20034;-58
2021/04/08 03:38:29;;;;;;;2.20;0.70;;;;;;;;;;5023926;28;20087;-57
2021/04/08 03:40:57;;;;;;;1.52;0.57;;;;;;;;;;5027348;28;20026;-55
2021/04/08 03:43:24;;;;;;;3.35;0.65;;;;;;;;;;5036692;28;20046;-56
2021/04/08 03:45:50;;;;;;;2.72;0.50;;;;;;;;;;5017628;28;20665;-58
2021/04/08 03:48:16;;;;;;;11.90;0.80;;;;;;;;;;5020813;28;20102;-51
2021/04/08 03:50:43;;;;;;;1.23;0.60;;;;;;;;;;5040021;28;20424;-58
2021/04/08 03:53:10;;;;;;;2.90;0.70;;;;;;;;;;5020688;28;20037;-58
2021/04/08 03:55:36;;;;;;;2.25;0.65;;;;;;;;;;5024628;28;20033;-55
2021/04/08 03:58:03;;;;;;;1.92;0.63;;;;;;;;;;5008813;28;20037;-56
2021/04/08 04:00:30;;;;;;;3.65;0.65;;;;;;;;;;5003567;28;20033;-59
2021/04/08 04:02:56;;;;;;;0.77;0.50;;;;;;;;;;5009054;28;20048;-55
2021/04/08 04:05:22;;;;;;;4.32;0.80;;;;;;;;;;5024095;28;20042;-59
2021/04/08 04:07:50;;;;;;;2.95;0.60;;;;;;;;;;5031896;28;20100;-58
2021/04/08 04:10:19;;;;;;;1.48;0.40;;;;;;;;;;5006188;28;20048;-57
2021/04/08 04:12:46;;;;;;;2.28;0.50;;;;;;;;;;5002194;28;20049;-54
2021/04/08 04:15:12;;;;;;;3.63;0.63;;;;;;;;;;5004087;28;20073;-57
2021/04/08 04:17:38;;;;;;;2.58;0.57;;;;;;;;;;5000529;28;20057;-57
2021/04/08 04:20:06;;;;;;;2.80;0.82;;;;;;;;;;5004276;28;20041;-56
2021/04/08 04:22:39;;;;;;;3.63;0.63;;;;;;;;;;5022718;28;20126;-58
2021/04/08 04:25:06;;;;;;;2.80;0.60;;;;;;;;;;5039725;28;20215;-57
2021/04/08 04:27:33;;;;;;;3.58;0.55;;;;;;;;;;5024752;28;20056;-51
2021/04/08 04:29:59;;;;;;;2.15;0.63;;;;;;;;;;5020808;28;20601;-56
2021/04/08 04:32:26;;;;;;;4.38;1.00;;;;;;;;;;5024010;28;20069;-54
2021/04/08 04:34:52;;;;;;;3.88;0.75;;;;;;;;;;5003643;28;20041;-59
2021/04/08 04:37:18;;;;;;;4.47;0.80;;;;;;;;;;5021239;28;20050;-56
2021/04/08 04:39:44;;;;;;;3.42;0.80;;;;;;;;;;5002301;28;20053;-58
2021/04/08 04:42:11;;;;;;;2.13;0.68;;;;;;;;;;5008131;28;20049;-56
2021/04/08 04:44:38;;;;;;;1.58;0.60;;;;;;;;;;5009638;28;20045;-56
2021/04/08 04:47:04;;;;;;;2.05;1.10;;;;;;;;;;5023727;28;20042;-52
2021/04/08 04:49:30;;;;;;;5.28;0.80;;;;;;;;;;5019497;28;20057;-55
2021/04/08 04:51:57;;;;;;;1.55;0.63;;;;;;;;;;5041902;28;20040;-55
2021/04/08 04:54:23;;;;;;;3.30;0.73;;;;;;;;;;5015775;28;20029;-54
2021/04/08 04:56:49;;;;;;;2.30;0.77;;;;;;;;;;5003411;28;20053;-55
2021/04/08 04:59:15;;;;;;;6.25;1.00;;;;;;;;;;5001272;28;20054;-59
2021/04/08 05:01:42;;;;;;;4.25;1.08;;;;;;;;;;5004300;28;20062;-59
2021/04/08 05:04:08;;;;;;;3.47;0.80;;;;;;;;;;5003906;28;20034;-55
2021/04/08 05:06:34;;;;;;;2.17;0.90;;;;;;;;;;5019134;28;20056;-59
2021/04/08 05:09:00;;;;;;;9.70;2.28;;;;;;;;;;5023354;28;20057;-58
2021/04/08 05:11:27;;;;;;;8.43;1.98;;;;;;;;;;5037394;28;20187;-54
2021/04/08 05:13:56;;;;;;;7.97;1.75;;;;;;;;;;5021122;28;20475;-58
2021/04/08 05:16:22;;;;;;;7.10;1.58;;;;;;;;;;5027971;28;20048;-56
2021/04/08 05:18:49;;;;;;;5.72;1.45;;;;;;;;;;5016516;28;20050;-54
2021/04/08 05:21:17;;;;;;;4.90;1.40;;;;;;;;;;5033593;28;20483;-59
2021/04/08 05:23:43;;;;;;;3.58;1.35;;;;;;;;;;5016313;28;20046;-59
2021/04/08 05:26:09;;;;;;;3.85;1.20;;;;;;;;;;5015485;28;20136;-54
2021/04/08 05:28:35;;;;;;;4.63;1.25;;;;;;;;;;5009803;28;20069;-57
2021/04/08 05:31:01;;;;;;;8.82;2.25;;;;;;;;;;5016759;28;20106;-53
2021/04/08 05:33:27;;;;;;;8.68;1.90;;;;;;;;;;5022790;28;20098;-51
2021/04/08 05:35:54;;;;;;;6.70;1.80;;;;;;;;;;5036359;28;20480;-51
2021/04/08 05:38:20;;;;;;;5.43;1.85;;;;;;;;;;5021691;28;20062;-57
2021/04/08 05:40:46;;;;;;;7.47;1.67;;;;;;;;;;5016852;28;20118;-59
2021/04/08 05:43:15;;;;;;;6.82;1.60;;;;;;;;;;5021837;28;20061;-58
2021/04/08 05:45:41;;;;;;;6.40;2.30;;;;;;;;;;5020797;28;20041;-60
2021/04/08 05:48:07;;;;;;;12.80;3.80;;;;;;;;;;5019978;28;20041;-57
2021/04/08 05:50:33;;;;;;;15.30;2.97;;;;;;;;;;5020566;28;20034;-54
2021/04/08 05:53:00;;;;;;;5.68;2.10;;;;;;;;;;5015255;28;20486;-58
2021/04/08 05:55:26;;;;;;;3.22;1.67;;;;;;;;;;5023833;28;20076;-58
2021/04/08 05:57:52;;;;;;;7.50;1.70;;;;;;;;;;5017156;28;20115;-58
2021/04/08 06:00:19;;;;;;;7.25;1.88;;;;;;;;;;5018060;28;20062;-59
2021/04/08 06:02:45;;;;;;;9.45;1.90;;;;;;;;;;5018321;28;20085;-55
2021/04/08 06:05:11;;;;;;;6.80;2.40;;;;;;;;;;5016172;28;20127;-52
2021/04/08 06:07:37;;;;;;;11.52;3.22;;;;;;;;;;5012300;28;20073;-59
2021/04/08 06:10:05;;;;;;;11.80;3.25;;;;;;;;;;5017446;28;20053;-58
2021/04/08 06:12:31;;;;;;;6.22;2.38;;;;;;;;;;5015829;28;20037;-56
2021/04/08 06:14:58;;;;;;;6.00;2.28;;;;;;;;;;5021263;28;20050;-58
2021/04/08 06:17:23;;;;;;;9.70;2.20;;;;;;;;;;5017378;28;20048;-54
2021/04/08 06:19:49;;;;;;;7.28;2.30;;;;;;;;;;5021783;28;20041;-56
2021/04/08 06:22:15;;;;;;;5.05;2.05;;;;;;;;;;5023525;28;20042;-53
2021/04/08 06:24:49;;;;;;;9.65;2.45;;;;;;;;;;4999886;28;20049;-54
2021/04/08 06:27:16;;;;;;;4.57;1.98;;;;;;;;;;5002608;28;20131;-57
2021/04/08 06:29:42;;;;;;;4.40;1.83;;;;;;;;;;5000308;28;20046;-55
2021/04/08 06:32:09;;;;;;;8.23;1.90;;;;;;;;;;5018912;28;20527;-55
2021/04/08 06:34:35;;;;;;;5.63;2.25;;;;;;;;;;5026598;28;20045;-55
2021/04/08 06:37:01;;;;;;;5.93;2.10;;;;;;;;;;5000680;28;20108;-58
2021/04/08 06:39:29;;;;;;;7.25;2.20;;;;;;;;;;5009107;28;20045;-57
2021/04/08 06:41:56;;;;;;;6.80;2.00;;;;;;;;;;5021634;28;20127;-56
2021/04/08 06:44:24;;;;;;;14.20;2.25;;;;;;;;;;5032598;28;20090;-58
2021/04/08 06:46:53;;;;;;;12.60;2.03;;;;;;;;;;5023408;28;20045;-54
2021/04/08 06:49:20;;;;;;;9.07;1.85;;;;;;;;;;5021700;28;20037;-57
2021/04/08 06:51:50;;;;;;;9.27;1.80;;;;;;;;;;5023169;28;20048;-57
2021/04/08 06:54:16;;;;;;;5.90;2.05;;;;;;;;;;5018171;28;20051;-48
2021/04/08 06:56:43;;;;;;;8.88;2.50;;;;;;;;;;5023719;28;20046;-53
2021/04/08 06:59:11;;;;;;;9.10;3.03;;;;;;;;;;5020236;28;20037;-56
2021/04/08 07:01:40;;;;;;;6.93;2.08;;;;;;;;;;5003167;28;20038;-58
2021/04/08 07:04:07;;;;;;;3.83;1.65;;;;;;;;;;5001484;28;20161;-56
2021/04/08 07:06:33;;;;;;;9.40;2.42;;;;;;;;;;5040109;28;20037;-59
2021/04/08 07:08:59;;;;;;;9.40;2.05;;;;;;;;;;5041447;28;20049;-53
2021/04/08 07:11:26;;;;;;;5.90;2.15;;;;;;;;;;5035388;28;20056;-56
2021/04/08 07:13:52;;;;;;;6.15;2.10;;;;;;;;;;5022059;28;20519;-59
2021/04/08 07:16:18;;;;;;;7.03;1.95;;;;;;;;;;5032773;28;20037;-53
2021/04/08 07:18:45;;;;;;;7.75;1.90;;;;;;;;;;5041168;28;20056;-55
2021/04/08 07:21:11;;;;;;;4.50;1.60;;;;;;;;;;5026110;28;20049;-53
2021/04/08 07:23:37;;;;;;;6.65;1.80;;;;;;;;;;5003685;28;20045;-59
2021/04/08 07:26:05;;;;;;;5.60;1.70;;;;;;;;;;5000736;28;20036;-55
2021/04/08 07:28:32;;;;;;;7.85;2.03;;;;;;;;;;5003454;28;20041;-58
2021/04/08 07:31:22;;;;;;;4.82;1.58;;;;;;;;;;5000388;28;20069;-57
2021/04/08 07:33:48;;;;;;;7.28;1.55;;;;;;;;;;5013327;28;20083;-60
2021/04/08 07:36:23;;;;;;;4.93;1.85;;;;;;;;;;5037390;28;20056;-59
2021/04/08 07:38:49;;;;;;;5.32;2.05;;;;;;;;;;5024772;28;20146;-60
2021/04/08 07:41:21;;;;;;;7.30;1.92;;;;;;;;;;5018965;28;20068;-58
2021/04/08 07:43:56;;;;;;;5.25;1.88;;;;;;;;;;5040214;28;20086;-57
2021/04/08 07:46:29;;;;;;;6.63;1.95;;;;;;;;;;5004500;28;20037;-59
2021/04/08 07:48:56;;;;;;;3.10;1.45;;;;;;;;;;5004845;28;20065;-59
2021/04/08 07:51:27;;;;;;;5.13;1.60;;;;;;;;;;5005876;28;20041;-59
2021/04/08 07:54:12;;;;;;;5.75;1.70;;;;;;;;;;5042759;28;20475;-59
2021/04/08 07:56:38;;;;;;;4.93;1.88;;;;;;;;;;5032727;28;20034;-56
2021/04/08 07:59:21;;;;;;;9.63;1.90;;;;;;;;;;5004655;28;20041;-57
2021/04/08 08:01:47;;;;;;;4.03;1.80;;;;;;;;;;5003887;28;20129;-56
2021/04/08 08:04:21;;;;;;;7.40;1.85;;;;;;;;;;5041664;28;20038;-58
2021/04/08 08:06:48;;;;;;;10.80;1.75;;;;;;;;;;5016968;28;20041;-56
2021/04/08 08:09:18;;;;;;;4.50;1.63;;;;;;;;;;4986667;28;20475;-58
2021/04/08 08:11:44;;;;;;;6.18;2.15;;;;;;;;;;5001499;28;20157;-59
2021/04/08 08:14:10;;;;;;;7.28;2.00;;;;;;;;;;5004610;28;20089;-58
2021/04/08 08:16:37;;;;;;;11.25;3.30;;;;;;;;;;5004896;28;20448;-57
2021/04/08 08:19:03;;;;;;;7.63;1.92;;;;;;;;;;5017673;28;20037;-53
2021/04/08 08:21:35;;;;;;;6.97;1.50;;;;;;;;;;5025814;28;20048;-53
2021/04/08 08:24:05;;;;;;;2.72;1.45;;;;;;;;;;5004769;28;20065;-53
2021/04/08 08:26:32;;;;;;;5.68;1.38;;;;;;;;;;5023637;28;20092;-59
2021/04/08 08:28:59;;;;;;;6.93;1.60;;;;;;;;;;4999661;28;20041;-61
2021/04/08 08:31:39;;;;;;;8.57;1.80;;;;;;;;;;5003536;28;20049;-60
2021/04/08 08:34:08;;;;;;;4.70;1.30;;;;;;;;;;5013570;28;20048;-61
2021/04/08 08:36:35;;;;;;;7.97;1.75;;;;;;;;;;5019071;28;20030;-56
2021/04/08 08:39:02;;;;;;;6.55;2.20;;;;;;;;;;5009581;28;20037;-61
2021/04/08 08:41:34;;;;;;;4.70;1.40;;;;;;;;;;5004036;28;20116;-61
2021/04/08 08:44:02;;;;;;;7.07;1.77;;;;;;;;;;5000912;28;20055;-61
2021/04/08 08:46:28;;;;;;;3.43;1.30;;;;;;;;;;5003881;28;20092;-61
2021/04/08 08:48:55;;;;;;;6.20;2.33;;;;;;;;;;4996824;28;20045;-62
2021/04/08 08:51:22;;;;;;;5.28;2.30;;;;;;;;;;5030346;28;20425;-61
2021/04/08 08:53:50;;;;;;;4.13;1.70;;;;;;;;;;5003002;28;20048;-61
2021/04/08 08:56:16;;;;;;;7.07;1.60;;;;;;;;;;5040854;28;20506;-61
2021/04/08 08:58:42;;;;;;;7.45;2.20;;;;;;;;;;5019557;28;20070;-53
2021/04/08 09:01:08;;;;;;;7.82;1.85;;;;;;;;;;5023790;28;20125;-61
2021/04/08 09:03:34;;;;;;;8.77;1.60;;;;;;;;;;5023439;28;20333;-61
2021/04/08 09:06:04;;;;;;;6.53;1.80;;;;;;;;;;5002346;28;20045;-60
2021/04/08 09:08:31;;;;;;;4.57;1.90;;;;;;;;;;5024599;28;20499;-57
2021/04/08 09:10:58;;;;;;;4.50;1.70;;;;;;;;;;5019902;28;20085;-59
2021/04/08 09:13:25;;;;;;;7.43;2.05;;;;;;;;;;5025762;28;20052;-57
2021/04/08 09:15:51;;;;;;;7.18;2.03;;;;;;;;;;5008403;28;20060;-60
2021/04/08 09:18:19;;;;;;;5.07;2.00;;;;;;;;;;5006851;28;20426;-60
2021/04/08 09:20:46;;;;;;;5.63;2.35;;;;;;;;;;5002660;28;20042;-59
2021/04/08 09:23:13;;;;;;;6.65;1.98;;;;;;;;;;5006482;28;20031;-58
2021/04/08 09:25:41;;;;;;;4.45;1.88;;;;;;;;;;5002847;28;20512;-59
2021/04/08 09:28:08;;;;;;;6.60;2.13;;;;;;;;;;5007280;28;20045;-61
2021/04/08 09:30:50;;;;;;;9.77;2.60;;;;;;;;;;5001295;28;20053;-61
2021/04/08 09:33:16;;;;;;;5.53;2.28;;;;;;;;;;5011291;28;20098;-55
2021/04/08 09:35:43;;;;;;;9.68;2.60;;;;;;;;;;5038202;28;20090;-59
2021/04/08 09:38:19;;;;;;;11.68;2.67;;;;;;;;;;5026759;28;20049;-55
2021/04/08 09:40:45;;;;;;;5.78;2.28;;;;;;;;;;5015883;28;20042;-57
2021/04/08 09:43:13;;;;;;;8.00;2.90;;;;;;;;;;5006392;28;20030;-59
2021/04/08 09:45:42;;;;;;;10.15;2.38;;;;;;;;;;5003998;28;20034;-52
2021/04/08 09:48:09;;;;;;;11.35;2.35;;;;;;;;;;5024739;28;20065;-55
2021/04/08 09:50:42;;;;;;;7.70;2.45;;;;;;;;;;5004659;28;20057;-60
2021/04/08 09:53:08;;;;;;;10.60;2.13;;;;;;;;;;5004446;28;20134;-60
2021/04/08 09:55:34;;;;;;;6.03;2.63;;;;;;;;;;5006540;28;20029;-59
2021/04/08 09:58:00;;;;;;;8.93;2.80;;;;;;;;;;5020516;28;20038;-59
2021/04/08 10:00:28;;;;;;;9.52;2.20;;;;;;;;;;5005889;28;20101;-61
2021/04/08 10:02:58;;;;;;;7.82;2.45;;;;;;;;;;5002224;28;20341;-60
2021/04/08 10:05:29;;;;;;;5.63;2.38;;;;;;;;;;5004608;28;20040;-59
2021/04/08 10:07:56;;;;;;;9.38;2.38;;;;;;;;;;4991558;28;20591;-59
2021/04/08 10:10:25;;;;;;;5.85;2.50;;;;;;;;;;5004686;28;20097;-58
2021/04/08 10:12:51;;;;;;;5.43;2.33;;;;;;;;;;5029526;28;20054;-60
2021/04/08 10:15:34;;;;;;;5.60;2.28;;;;;;;;;;5023592;28;20049;-59
2021/04/08 10:18:09;;;;;;;4.53;2.08;;;;;;;;;;5021564;28;20147;-61
2021/04/08 10:20:38;;;;;;;7.80;2.97;;;;;;;;;;5024710;28;20550;-62
2021/04/08 10:23:04;;;;;;;10.38;2.90;;;;;;;;;;5010722;28;20049;-60
2021/04/08 10:25:30;;;;;;;10.35;2.80;;;;;;;;;;5005890;28;20053;-60
2021/04/08 10:27:56;;;;;;;12.57;2.67;;;;;;;;;;5003214;28;20479;-60
2021/04/08 10:30:23;;;;;;;8.10;3.35;;;;;;;;;;5005669;28;20077;-60
2021/04/08 10:32:51;;;;;;;12.27;3.38;;;;;;;;;;5005479;28;20103;-60
2021/04/08 10:35:25;;;;;;;8.43;3.40;;;;;;;;;;5024952;28;20060;-59
2021/04/08 10:38:01;;;;;;;8.73;2.55;;;;;;;;;;5017335;28;20042;-58
2021/04/08 10:40:28;;;;;;;9.68;3.05;;;;;;;;;;5021306;28;20054;-58
2021/04/08 10:43:10;;;;;;;7.43;2.70;;;;;;;;;;5002737;28;20034;-57
2021/04/08 10:45:36;;;;;;;8.15;3.20;;;;;;;;;;5018847;28;20026;-60
2021/04/08 10:48:02;;;;;;;6.22;2.70;;;;;;;;;;5001655;28;20049;-58
2021/04/08 10:50:29;;;;;;;4.90;2.60;;;;;;;;;;5023390;28;20046;-60
2021/04/08 10:52:59;;;;;;;8.57;2.88;;;;;;;;;;5003307;28;20053;-60
2021/04/08 10:55:25;;;;;;;9.20;3.25;;;;;;;;;;5025215;28;20041;-59
2021/04/08 10:57:51;;;;;;;2.47;1.40;;;;;;;;;;5025390;28;20086;-57
2021/04/08 11:00:18;;;;;;;11.57;2.72;;;;;;;;;;5003954;28;20078;-58
2021/04/08 11:02:45;;;;;;;8.77;2.83;;;;;;;;;;5005819;28;20029;-59
2021/04/08 11:05:15;;;;;;;7.05;2.75;;;;;;;;;;5002982;28;20041;-56
2021/04/08 11:07:42;;;;;;;5.68;2.47;;;;;;;;;;5005853;28;20033;-56
2021/04/08 11:10:09;;;;;;;11.00;2.90;;;;;;;;;;5002929;28;20038;-58
2021/04/08 11:12:39;;;;;;;6.38;2.70;;;;;;;;;;5005458;28;20219;-58
2021/04/08 11:15:06;;;;;;;5.45;2.50;;;;;;;;;;5004365;28;20046;-58
2021/04/08 11:17:33;;;;;;;11.77;3.10;;;;;;;;;;5007587;28;20058;-60
2021/04/08 11:20:00;;;;;;;9.27;3.15;;;;;;;;;;5010652;28;20045;-60
2021/04/08 11:22:28;;;;;;;10.30;3.10;;;;;;;;;;5024685;28;20051;-59
2021/04/08 11:24:54;;;;;;;;;;;;;;;;;;5015304;28;20532;-60
2021/04/08 11:27:25;;;;;;;8.40;2.75;;;;;;;;;;4992426;28;19951;-58
2021/04/08 11:29:51;;;;;;;6.40;2.65;;;;;;;;;;4992551;28;20038;-60
2021/04/08 11:32:17;;;;;;;7.47;3.08;;;;;;;;;;5005157;28;20067;-59
2021/04/08 11:34:44;;;;;;;7.38;3.25;;;;;;;;;;5017878;28;20115;-62
2021/04/08 11:37:10;;;;;;;9.57;3.13;;;;;;;;;;5003706;28;20049;-62
2021/04/08 11:39:37;;;;;;;7.38;3.80;;;;;;;;;;5005353;28;20044;-59
2021/04/08 11:42:27;;;;;;;8.80;4.13;;;;;;;;;;5001350;28;20041;-60
2021/04/08 11:44:54;;;;;;;11.63;4.30;;;;;;;;;;5002285;28;20054;-59
2021/04/08 11:47:21;;;;;;;9.85;3.38;;;;;;;;;;5002467;28;20041;-58
2021/04/08 11:49:48;;;;;;;8.82;3.15;;;;;;;;;;5003500;28;20041;-58
2021/04/08 11:52:17;;;;;;;9.40;3.88;;;;;;;;;;5001763;28;20044;-59
2021/04/08 11:54:56;;;;;;;11.98;4.05;;;;;;;;;;5004924;28;20516;-61
2021/04/08 11:57:22;;;;;;;6.82;3.13;;;;;;;;;;5016825;28;20223;-61
2021/04/08 11:59:48;;;;;;;7.28;3.20;;;;;;;;;;5024943;28;20029;-59
2021/04/08 12:02:27;;;;;;;7.75;3.55;;;;;;;;;;5007125;28;20053;-59
2021/04/08 12:04:53;;;;;;;11.25;3.92;;;;;;;;;;5019717;28;20053;-59
2021/04/08 12:07:19;;;;;;;9.55;4.00;;;;;;;;;;5000791;28;20050;-59
2021/04/08 12:09:47;;;;;;;7.13;3.45;;;;;;;;;;5005368;28;20077;-58
2021/04/08 12:12:13;;;;;;;9.18;3.55;;;;;;;;;;5003240;28;20037;-61
2021/04/08 12:14:52;;;;;;;9.40;3.58;;;;;;;;;;5003727;28;20061;-59
2021/04/08 12:17:18;;;;;;;15.63;4.20;;;;;;;;;;5001765;28;20180;-58
2021/04/08 12:19:44;;;;;;;11.50;4.03;;;;;;;;;;5004551;28;20042;-58
2021/04/08 12:22:13;;;;;;;12.30;3.97;;;;;;;;;;5017538;28;20056;-59
2021/04/08 12:24:39;;;;;;;9.73;4.07;;;;;;;;;;5004201;28;20057;-57
2021/04/08 12:27:15;;;;;;;9.55;3.40;;;;;;;;;;5004726;28;20045;-59
2021/04/08 12:29:41;;;;;;;8.38;3.83;;;;;;;;;;5021733;28;20134;-60
2021/04/08 12:32:07;;;;;;;8.90;3.85;;;;;;;;;;5010964;28;20078;-57
2021/04/08 12:34:34;;;;;;;7.95;3.90;;;;;;;;;;5009069;28;20056;-61
2021/04/08 12:37:00;;;;;;;11.55;3.92;;;;;;;;;;5018723;28;20062;-58
2021/04/08 12:39:27;;;;;;;7.93;3.67;;;;;;;;;;5004804;28;20109;-57
2021/04/08 12:41:56;;;;;;;9.65;3.25;;;;;;;;;;5009205;28;20038;-58
2021/04/08 12:44:22;;;;;;;7.38;3.20;;;;;;;;;;5024566;28;20049;-58
2021/04/08 12:46:49;;;;;;;7.90;3.47;;;;;;;;;;5008187;28;20057;-59
2021/04/08 12:49:15;;;;;;;13.93;4.10;;;;;;;;;;5022681;28;20089;-58
2021/04/08 12:51:42;;;;;;;8.20;3.72;;;;;;;;;;5006203;28;20077;-59
2021/04/08 12:54:08;;;;;;;13.15;3.60;;;;;;;;;;5003922;28;20104;-59
2021/04/08 12:56:34;;;;;;;7.18;3.88;;;;;;;;;;5007020;28;20045;-62
2021/04/08 12:59:00;;;;;;;8.63;2.53;;;;;;;;;;5026940;28;20033;-59
2021/04/08 13:01:27;;;;;;;8.98;3.65;;;;;;;;;;5006511;28;20037;-58
2021/04/08 13:03:53;;;;;;;9.30;4.28;;;;;;;;;;5027273;28;20052;-61
2021/04/08 13:06:19;;;;;;;8.07;4.28;;;;;;;;;;5041853;28;20045;-61
2021/04/08 13:08:46;;;;;;;7.90;3.90;;;;;;;;;;5020710;28;20029;-60
2021/04/08 13:11:13;;;;;;;10.18;4.85;;;;;;;;;;5024758;28;20041;-60
2021/04/08 13:13:39;;;;;;;14.50;4.32;;;;;;;;;;5020553;28;20041;-58
2021/04/08 13:16:05;;;;;;;11.27;3.92;;;;;;;;;;5025258;28;20040;-60
2021/04/08 13:18:33;;;;;;;8.23;4.13;;;;;;;;;;5027017;28;20049;-59
2021/04/08 13:21:00;;;;;;;6.88;3.38;;;;;;;;;;5022165;28;20057;-61
2021/04/08 13:23:26;;;;;;;10.50;4.15;;;;;;;;;;5024475;28;20041;-61
2021/04/08 13:25:53;;;;;;;12.50;3.92;;;;;;;;;;5022573;28;20167;-61
2021/04/08 13:28:19;;;;;;;8.25;4.60;;;;;;;;;;5024985;28;20041;-62
2021/04/08 13:30:45;;;;;;;7.80;3.40;;;;;;;;;;5036192;28;20040;-62
2021/04/08 13:33:11;;;;;;;8.18;3.90;;;;;;;;;;5010063;28;20047;-60
2021/04/08 13:35:37;;;;;;;10.40;4.57;;;;;;;;;;5009331;28;20122;-59
2021/04/08 13:38:04;;;;;;;11.15;3.97;;;;;;;;;;5005955;28;20127;-61
2021/04/08 13:40:31;;;;;;;10.50;3.67;;;;;;;;;;5003980;28;20041;-60
2021/04/08 13:42:58;;;;;;;8.48;3.78;;;;;;;;;;5021228;28;20034;-60
2021/04/08 13:45:24;;;;;;;11.32;4.20;;;;;;;;;;5001443;28;20037;-61
2021/04/08 13:47:50;;;;;;;11.43;4.07;;;;;;;;;;5022069;28;20034;-59
2021/04/08 13:50:16;;;;;;;9.00;3.17;;;;;;;;;;5001695;28;20128;-61
2021/04/08 13:52:43;;;;;;;11.25;4.78;;;;;;;;;;5004485;28;20078;-59
2021/04/08 13:55:11;;;;;;;9.75;4.15;;;;;;;;;;5003738;28;20053;-62
2021/04/08 13:57:37;;;;;;;9.90;4.57;;;;;;;;;;5024690;28;20033;-61
2021/04/08 14:00:06;;;;;;;7.93;4.10;;;;;;;;;;5024455;28;20044;-61
2021/04/08 14:02:32;;;;;;;8.10;4.38;;;;;;;;;;5036396;28;20041;-58
2021/04/08 14:04:58;;;;;;;8.80;4.18;;;;;;;;;;5020544;28;20044;-58
2021/04/08 14:07:24;;;;;;;12.75;3.85;;;;;;;;;;5004024;28;20042;-59
2021/04/08 14:09:50;;;;;;;12.20;4.80;;;;;;;;;;5004475;28;20042;-57
2021/04/08 14:12:16;;;;;;;10.18;4.15;;;;;;;;;;5012200;28;20053;-58
2021/04/08 14:14:42;;;;;;;8.70;4.18;;;;;;;;;;5024485;28;20050;-58
2021/04/08 14:17:09;;;;;;;10.45;4.20;;;;;;;;;;5009304;28;20094;-61
2021/04/08 14:19:35;;;;;;;10.55;4.55;;;;;;;;;;5022456;28;20041;-62
2021/04/08 14:22:02;;;;;;;11.05;4.18;;;;;;;;;;5018611;28;20134;-62
2021/04/08 14:24:28;;;;;;;10.55;4.78;;;;;;;;;;5021911;28;20034;-60
2021/04/08 14:26:58;;;;;;;10.70;4.95;;;;;;;;;;5013515;28;20042;-60
2021/04/08 14:29:24;;;;;;;9.13;4.72;;;;;;;;;;5002347;28;20046;-62
2021/04/08 14:31:50;;;;;;;10.80;5.47;;;;;;;;;;4998949;28;20033;-62
2021/04/08 14:34:17;;;;;;;15.38;5.57;;;;;;;;;;5001321;28;20500;-60
2021/04/08 14:36:43;;;;;;;11.77;5.30;;;;;;;;;;5016208;28;20034;-61
2021/04/08 14:39:08;;;;;;;11.95;6.13;;;;;;;;;;5011307;28;20052;-60
2021/04/08 14:41:35;;;;;;;13.10;4.70;;;;;;;;;;5001763;28;20038;-60
2021/04/08 14:44:01;;;;;;;13.15;5.60;;;;;;;;;;4999983;28;20049;-59